Weather at Bordeaux-Mérignac Airport

Public forecast

Using degrees Celsius for public forecast. Weather courtesy of forecast.io.

Current aviation weather report (METAR) for Bordeaux-Mérignac Airport

2024/04/18 03:00 (retrieved 25 minutes ago)

LFBD 180300Z AUTO 01005KT 9999 OVC048 09/05 Q1019 NOSIG

Closest aviation forecast (TAF) to Bordeaux-Mérignac Airport

Forecast is more than 6 hours old.

Closest forecast is Cazaux (BA 120) Air Base, 24.9 nm (46.1 km) SW.

2024/04/17 18:03 Ammendment (retrieved 9 hours ago)

TAF AMD TAF AMD LFBC 171801Z 1718/1815 CNL